createdAt,value
2022-10-17T00:01:08.257Z,101933.91
2022-10-17T00:06:12.936Z,101939.16
2022-10-17T00:11:18.848Z,101940.91
2022-10-17T00:16:29.019Z,101944.38
2022-10-17T00:21:30.904Z,101943.53
2022-10-17T00:26:32.614Z,101938.31
2022-10-17T00:31:35.570Z,101951.34
2022-10-17T00:36:37.575Z,101948.88
2022-10-17T00:41:39.429Z,101946.34
2022-10-17T00:46:40.944Z,101944.59
2022-10-17T00:51:50.070Z,101936.75
2022-10-17T00:56:52.455Z,101940.25
2022-10-17T01:02:01.901Z,101920.22
2022-10-17T01:07:03.358Z,101938.47
2022-10-17T01:12:14.057Z,101947.16
2022-10-17T01:17:31.658Z,101934.03
2022-10-17T01:22:41.615Z,101936.63
2022-10-17T01:27:42.952Z,101935.72
2022-10-17T01:32:55.112Z,101931.31
2022-10-17T01:38:10.265Z,101929.56
2022-10-17T01:43:45.205Z,101922.53
2022-10-17T01:48:46.753Z,101912.09
2022-10-17T01:54:00.866Z,101921.50
2022-10-17T01:59:15.039Z,101906.59
2022-10-17T02:04:16.531Z,101909.19
2022-10-17T02:09:20.860Z,101910.91
2022-10-17T02:14:41.016Z,101907.44
2022-10-17T02:20:16.302Z,101892.63
2022-10-17T02:25:28.032Z,101894.44
2022-10-17T02:30:41.835Z,101877.88
2022-10-17T02:35:47.758Z,101866.47
2022-10-17T02:40:51.500Z,101872.44
2022-10-17T02:45:53.980Z,101868.06
2022-10-17T02:51:25.820Z,101859.28
2022-10-17T02:56:30.884Z,101854.00
2022-10-17T03:01:32.624Z,101857.47
2022-10-17T03:06:34.126Z,101867.97
2022-10-17T03:11:35.532Z,101853.06
2022-10-17T03:16:36.991Z,101842.72
2022-10-17T03:21:38.474Z,101851.44
2022-10-17T03:26:39.968Z,101849.75
2022-10-17T03:31:41.448Z,101848.00
2022-10-17T03:36:43.544Z,101846.25
2022-10-17T03:41:44.952Z,101841.94
2022-10-17T03:46:46.512Z,101840.19
2022-10-17T03:51:47.957Z,101834.88
2022-10-17T03:56:49.509Z,101834.78
2022-10-17T04:01:50.980Z,101825.97
2022-10-17T04:06:52.395Z,101805.03
2022-10-17T04:11:53.818Z,101814.44
2022-10-17T04:16:55.324Z,101820.56
2022-10-17T04:21:56.770Z,101810.06
2022-10-17T04:26:58.269Z,101794.34
2022-10-17T04:31:59.746Z,101786.22
2022-10-17T04:37:01.179Z,101785.25
2022-10-17T04:42:02.631Z,101775.59
2022-10-17T04:47:04.593Z,101762.47
2022-10-17T04:52:06.033Z,101762.25
2022-10-17T04:57:07.503Z,101761.38
2022-10-17T05:02:09.019Z,101746.47
2022-10-17T05:07:10.599Z,101748.91
2022-10-17T05:12:12.061Z,101753.16
2022-10-17T05:17:13.466Z,101766.00
2022-10-17T05:22:15.113Z,101777.28
2022-10-17T05:27:16.561Z,101771.22
2022-10-17T05:32:18.013Z,101762.59
2022-10-17T05:37:19.444Z,101745.38
2022-10-17T05:42:21.173Z,101728.13
2022-10-17T05:47:22.721Z,101724.59
2022-10-17T05:52:24.164Z,101728.00
2022-10-17T05:57:26.559Z,101720.25
2022-10-17T06:02:28.342Z,101715.97
2022-10-17T06:07:30.156Z,101718.53
2022-10-17T06:12:31.836Z,101710.66
2022-10-17T06:17:33.514Z,101704.59
2022-10-17T06:22:34.971Z,101708.75
2022-10-17T06:27:36.430Z,101713.13
2022-10-17T06:32:37.848Z,101722.25
2022-10-17T06:37:39.577Z,101730.63
2022-10-17T06:42:41.736Z,101723.47
2022-10-17T06:47:43.225Z,101743.97
2022-10-17T06:52:44.648Z,101741.16
2022-10-17T06:57:46.120Z,101752.16
2022-10-17T07:02:47.537Z,101747.72
2022-10-17T07:07:51.749Z,101729.31
2022-10-17T07:12:53.284Z,101746.56
2022-10-17T07:17:54.708Z,101733.94
2022-10-17T07:22:56.219Z,101740.31
2022-10-17T07:27:57.707Z,101734.03
2022-10-17T07:32:59.132Z,101749.41
2022-10-17T07:38:00.558Z,101744.50
2022-10-17T07:43:01.999Z,101739.47
2022-10-17T07:48:03.605Z,101733.69
2022-10-17T07:53:05.057Z,101733.06
2022-10-17T07:58:08.941Z,101732.84
2022-10-17T08:03:11.439Z,101712.16
2022-10-17T08:08:12.960Z,101699.78
2022-10-17T08:13:14.383Z,101696.16
2022-10-17T08:18:15.989Z,101714.34
2022-10-17T08:23:17.447Z,101731.19
2022-10-17T08:28:18.868Z,101729.66
2022-10-17T08:33:20.318Z,101718.91
2022-10-17T08:38:23.286Z,101697.84
2022-10-17T08:43:37.735Z,101691.44
2022-10-17T08:48:46.591Z,101682.38
2022-10-17T08:53:53.787Z,101673.34
2022-10-17T08:58:55.298Z,101673.84
2022-10-17T09:04:16.092Z,101685.63
2022-10-17T09:09:28.004Z,101677.66
2022-10-17T09:15:02.998Z,101685.69
2022-10-17T09:20:19.765Z,101670.09
2022-10-17T09:25:21.763Z,101657.06
2022-10-17T09:30:46.192Z,101675.78
2022-10-17T09:35:49.945Z,101673.81
2022-10-17T09:40:57.215Z,101681.25
2022-10-17T09:46:15.970Z,101663.63
2022-10-17T09:51:25.762Z,101680.16
2022-10-17T09:56:27.775Z,101673.03
2022-10-17T10:01:31.426Z,101673.88
2022-10-17T10:06:32.928Z,101675.13
2022-10-17T10:11:49.871Z,101670.41
2022-10-17T10:16:53.710Z,101690.66
2022-10-17T10:21:58.691Z,101693.13
2022-10-17T10:27:03.173Z,101698.78
2022-10-17T10:32:16.385Z,101698.16
2022-10-17T10:37:30.757Z,101705.56
2022-10-17T10:42:39.470Z,101707.09
2022-10-17T10:47:51.704Z,101696.59
2022-10-17T10:53:34.211Z,101720.28
2022-10-17T10:58:48.541Z,101716.81
2022-10-17T11:04:04.942Z,101723.66
2022-10-17T11:09:32.974Z,101723.13
2022-10-17T11:14:47.935Z,101733.78
2022-10-17T11:20:15.201Z,101745.97
2022-10-17T11:25:40.281Z,101750.84
2022-10-17T11:31:13.226Z,101774.38
2022-10-17T11:36:17.984Z,101769.75
2022-10-17T11:41:29.825Z,101777.59
2022-10-17T11:46:36.056Z,101798.31
2022-10-17T11:52:04.239Z,101783.34
2022-10-17T11:57:19.872Z,101785.22
2022-10-17T12:02:32.999Z,101756.03
2022-10-17T12:07:56.354Z,101729.41
2022-10-17T12:12:57.906Z,101718.09
2022-10-17T12:18:04.051Z,101757.13
2022-10-17T12:23:11.600Z,101772.25
2022-10-17T12:28:16.812Z,101778.25
2022-10-17T12:33:27.828Z,101770.38
2022-10-17T12:38:29.321Z,101780.31
2022-10-17T12:43:30.781Z,101778.84
2022-10-17T12:48:38.475Z,101793.72
2022-10-17T12:53:43.506Z,101819.38
2022-10-17T12:58:48.673Z,101701.13
2022-10-17T13:03:52.482Z,101736.22
2022-10-17T13:09:20.744Z,101787.41
2022-10-17T13:14:24.489Z,101785.72
2022-10-17T13:19:30.169Z,101802.28
2022-10-17T13:24:32.948Z,101823.78
2022-10-17T13:29:34.577Z,101798.16
2022-10-17T13:34:36.146Z,101775.56
2022-10-17T13:39:55.248Z,101740.69
2022-10-17T13:44:59.118Z,101736.31
2022-10-17T13:50:00.991Z,101751.53
2022-10-17T13:55:14.208Z,101746.06
2022-10-17T14:00:28.221Z,101768.44
2022-10-17T14:05:29.742Z,101794.34
2022-10-17T14:10:32.866Z,101789.06
2022-10-17T14:15:36.629Z,101808.28
2022-10-17T14:21:19.732Z,101814.06
2022-10-17T14:26:12.314Z,101833.16
2022-10-17T14:31:25.414Z,101841.06
2022-10-17T14:36:51.262Z,101850.53
2022-10-17T14:41:53.795Z,101849.72
2022-10-17T14:47:38.190Z,101866.78
2022-10-17T14:52:31.541Z,101865.19
2022-10-17T14:57:33.214Z,101867.44
2022-10-17T15:02:34.869Z,101874.03
2022-10-17T15:07:36.298Z,101882.28
2022-10-17T15:12:37.713Z,101888.78
2022-10-17T15:17:39.339Z,101890.81
2022-10-17T15:22:40.808Z,101889.91
2022-10-17T15:27:42.300Z,101896.31
2022-10-17T15:32:43.773Z,101907.44
2022-10-17T15:37:46.776Z,101917.88
2022-10-17T15:42:48.393Z,101909.38
2022-10-17T15:47:52.792Z,101919.75
2022-10-17T15:52:54.244Z,101920.06
2022-10-17T15:57:55.824Z,101933.59
2022-10-17T16:02:57.325Z,101923.00
2022-10-17T16:07:58.759Z,101946.63
2022-10-17T16:13:00.175Z,101946.91
2022-10-17T16:18:04.285Z,101957.31
2022-10-17T16:23:08.419Z,101949.66
2022-10-17T16:28:11.784Z,101963.75
2022-10-17T16:33:13.377Z,101967.16
2022-10-17T16:38:16.064Z,101970.56
2022-10-17T16:43:17.538Z,101993.72
2022-10-17T16:48:26.162Z,101988.41
2022-10-17T16:53:30.934Z,101999.91
2022-10-17T16:58:32.402Z,102016.34
2022-10-17T17:03:37.967Z,102001.88
2022-10-17T17:08:40.281Z,102000.16
2022-10-17T17:13:41.772Z,102001.72
2022-10-17T17:18:43.445Z,102008.75
2022-10-17T17:23:44.961Z,102013.38
2022-10-17T17:28:47.335Z,102005.69
2022-10-17T17:33:49.191Z,102006.19
2022-10-17T17:38:53.435Z,102017.09
2022-10-17T17:43:55.719Z,102016.22
2022-10-17T17:48:57.190Z,102023.22
2022-10-17T17:53:58.669Z,102025.06
2022-10-17T17:59:02.359Z,102037.50
2022-10-17T18:04:05.750Z,102044.44
2022-10-17T18:09:07.980Z,102051.63
2022-10-17T18:14:12.569Z,102053.56
2022-10-17T18:19:14.068Z,102051.09
2022-10-17T18:24:15.652Z,102057.72
2022-10-17T18:29:17.206Z,102068.09
2022-10-17T18:34:18.660Z,102071.72
2022-10-17T18:39:20.516Z,102069.97
2022-10-17T18:44:21.947Z,102076.28
2022-10-17T18:49:23.493Z,102083.72
2022-10-17T18:54:24.904Z,102086.59
2022-10-17T18:59:26.433Z,102099.03
2022-10-17T19:04:27.950Z,102102.06
2022-10-17T19:09:29.574Z,102094.84
2022-10-17T19:14:31.345Z,102106.38
2022-10-17T19:19:33.342Z,102121.34
2022-10-17T19:24:35.132Z,102110.03
2022-10-17T19:29:36.547Z,102125.94
2022-10-17T19:34:38.201Z,102127.72
2022-10-17T19:39:39.692Z,102124.97
2022-10-17T19:44:41.095Z,102134.84
2022-10-17T19:49:46.485Z,102147.16
2022-10-17T19:54:50.531Z,102154.84
2022-10-17T19:59:53.742Z,102150.09
2022-10-17T20:05:13.932Z,102165.94
2022-10-17T20:10:18.922Z,102167.66
2022-10-17T20:15:20.421Z,102162.25
2022-10-17T20:20:22.117Z,102174.50
2022-10-17T20:25:23.579Z,102187.47
2022-10-17T20:30:25.115Z,102198.00
2022-10-17T20:35:26.580Z,102199.78
2022-10-17T20:40:35.847Z,102196.06
2022-10-17T20:45:50.714Z,102204.88
2022-10-17T20:50:53.733Z,102217.16
2022-10-17T20:56:17.050Z,102210.28
2022-10-17T21:01:18.721Z,102224.94
2022-10-17T21:06:21.073Z,102231.91
2022-10-17T21:11:24.875Z,102225.00
2022-10-17T21:16:27.535Z,102234.59
2022-10-17T21:21:40.893Z,102232.94
2022-10-17T21:26:43.897Z,102239.13
2022-10-17T21:31:45.416Z,102246.84
2022-10-17T21:36:48.070Z,102244.50
2022-10-17T21:41:49.504Z,102247.94
2022-10-17T21:46:51.982Z,102251.59
2022-10-17T21:51:53.656Z,102262.03
2022-10-17T21:56:55.059Z,102256.06
2022-10-17T22:01:56.498Z,102260.56
2022-10-17T22:06:57.989Z,102265.84
2022-10-17T22:11:59.462Z,102273.72
2022-10-17T22:17:01.568Z,102272.81
2022-10-17T22:22:02.996Z,102273.78
2022-10-17T22:27:04.708Z,102272.91
2022-10-17T22:32:06.156Z,102268.69
2022-10-17T22:37:07.624Z,102265.91
2022-10-17T22:42:09.140Z,102271.44
2022-10-17T22:47:10.607Z,102264.59
2022-10-17T22:52:12.112Z,102258.50
2022-10-17T22:57:13.541Z,102261.34
2022-10-17T23:02:14.959Z,102266.59
2022-10-17T23:07:16.417Z,102272.72
2022-10-17T23:12:17.977Z,102266.53
2022-10-17T23:17:19.373Z,102266.38
2022-10-17T23:22:20.783Z,102266.44
2022-10-17T23:27:22.249Z,102279.59
2022-10-17T23:32:23.708Z,102284.19
2022-10-17T23:37:25.161Z,102267.69
2022-10-17T23:42:27.116Z,102274.75
2022-10-17T23:47:28.865Z,102267.72
2022-10-17T23:52:31.011Z,102273.84
2022-10-17T23:57:32.824Z,102279.41
